createdAt,value
2023-03-15T00:00:36.305Z,0.65
2023-03-15T00:03:02.570Z,0.70
2023-03-15T00:05:28.835Z,0.71
2023-03-15T00:07:55.121Z,0.69
2023-03-15T00:10:21.368Z,0.66
2023-03-15T00:12:47.635Z,0.71
2023-03-15T00:15:13.920Z,0.87
2023-03-15T00:17:40.190Z,0.98
2023-03-15T00:20:06.458Z,0.96
2023-03-15T00:22:32.727Z,0.89
2023-03-15T00:24:59.000Z,0.83
2023-03-15T00:27:25.247Z,0.90
2023-03-15T00:29:51.522Z,1.01
2023-03-15T00:32:17.847Z,0.96
2023-03-15T00:34:44.101Z,0.82
2023-03-15T00:37:10.359Z,0.75
2023-03-15T00:39:36.615Z,0.88
2023-03-15T00:42:02.890Z,1.09
2023-03-15T00:44:29.156Z,1.32
2023-03-15T00:46:55.492Z,1.08
2023-03-15T00:49:21.811Z,0.99
2023-03-15T00:51:48.077Z,0.97
2023-03-15T00:54:14.335Z,1.10
2023-03-15T00:56:40.585Z,1.08
2023-03-15T00:59:06.835Z,0.94
2023-03-15T01:01:33.242Z,0.96
2023-03-15T01:03:59.520Z,1.12
2023-03-15T01:06:25.811Z,0.79
2023-03-15T01:08:52.083Z,0.84
2023-03-15T01:11:18.354Z,0.88
2023-03-15T01:13:44.644Z,1.03
2023-03-15T01:16:10.987Z,0.91
2023-03-15T01:18:37.284Z,0.79
2023-03-15T01:21:03.550Z,0.67
2023-03-15T01:23:29.828Z,0.60
2023-03-15T01:25:56.093Z,0.56
2023-03-15T01:28:22.367Z,0.53
2023-03-15T01:30:49.825Z,0.46
2023-03-15T01:33:16.183Z,0.57
2023-03-15T01:35:42.523Z,0.57
2023-03-15T01:38:08.829Z,0.62
2023-03-15T01:40:35.111Z,0.53
2023-03-15T01:43:01.361Z,0.70
2023-03-15T01:45:27.636Z,0.69
2023-03-15T01:47:53.912Z,0.58
2023-03-15T01:50:20.161Z,0.67
2023-03-15T01:52:46.415Z,0.61
2023-03-15T01:55:12.680Z,0.69
2023-03-15T01:57:38.981Z,0.68
2023-03-15T02:00:05.256Z,0.78
2023-03-15T02:02:31.603Z,0.75
2023-03-15T02:04:57.874Z,0.80
2023-03-15T02:07:24.152Z,0.60
2023-03-15T02:09:50.441Z,0.74
2023-03-15T02:12:16.711Z,0.65
2023-03-15T02:14:42.979Z,0.75
2023-03-15T02:17:09.252Z,0.73
2023-03-15T02:19:35.550Z,0.66
2023-03-15T02:22:01.785Z,0.73
2023-03-15T02:24:28.039Z,0.70
2023-03-15T02:26:54.343Z,0.66
2023-03-15T02:29:20.700Z,0.69
2023-03-15T02:31:46.999Z,0.66
2023-03-15T02:34:13.314Z,0.73
2023-03-15T02:36:39.559Z,0.75
2023-03-15T02:39:05.823Z,0.76
2023-03-15T02:41:32.107Z,0.87
2023-03-15T02:43:58.386Z,0.77
2023-03-15T02:46:24.697Z,0.64
2023-03-15T02:48:50.999Z,0.73
2023-03-15T02:51:17.245Z,0.68
2023-03-15T02:53:43.518Z,0.63
2023-03-15T02:56:09.773Z,0.62
2023-03-15T02:58:36.021Z,0.80
2023-03-15T03:01:02.313Z,0.86
2023-03-15T03:03:28.601Z,0.77
2023-03-15T03:05:54.864Z,0.71
2023-03-15T03:08:21.113Z,0.74
2023-03-15T03:10:47.367Z,0.73
2023-03-15T03:13:13.642Z,0.76
2023-03-15T03:15:39.909Z,0.69
2023-03-15T03:18:06.194Z,0.71
2023-03-15T03:20:32.486Z,0.77
2023-03-15T03:22:58.794Z,1.48
2023-03-15T03:25:25.037Z,1.77
2023-03-15T03:27:51.290Z,1.50
2023-03-15T03:30:17.546Z,1.67
2023-03-15T03:32:43.852Z,1.39
2023-03-15T03:35:10.125Z,1.04
2023-03-15T03:37:36.398Z,0.96
2023-03-15T03:40:02.626Z,0.91
2023-03-15T03:42:28.922Z,0.87
2023-03-15T03:44:55.177Z,1.20
2023-03-15T03:47:21.453Z,0.88
2023-03-15T03:49:47.709Z,0.76
2023-03-15T03:52:13.970Z,0.96
2023-03-15T03:54:40.258Z,0.86
2023-03-15T03:57:06.540Z,0.87
2023-03-15T03:59:32.805Z,0.94
2023-03-15T04:01:59.080Z,0.95
2023-03-15T04:04:25.467Z,0.91
2023-03-15T04:06:51.757Z,1.14
2023-03-15T04:09:18.126Z,1.06
2023-03-15T04:11:44.402Z,0.91
2023-03-15T04:14:10.729Z,0.90
2023-03-15T04:16:37.012Z,0.93
2023-03-15T04:19:03.260Z,1.10
2023-03-15T04:21:29.534Z,1.01
2023-03-15T04:23:55.821Z,0.98
2023-03-15T04:26:22.091Z,0.98
2023-03-15T04:28:48.375Z,1.02
2023-03-15T04:31:14.691Z,1.04
2023-03-15T04:33:41.049Z,0.97
2023-03-15T04:36:07.374Z,0.97
2023-03-15T04:38:33.658Z,0.93
2023-03-15T04:40:59.901Z,0.97
2023-03-15T04:43:26.166Z,1.07
2023-03-15T04:45:52.429Z,1.20
2023-03-15T04:48:18.685Z,0.92
2023-03-15T04:50:45.060Z,0.99
2023-03-15T04:53:11.331Z,0.87
2023-03-15T04:55:37.665Z,0.88
2023-03-15T04:58:03.922Z,1.00
2023-03-15T05:00:30.229Z,1.07
2023-03-15T05:02:56.627Z,2.63
2023-03-15T05:05:22.910Z,1.95
2023-03-15T05:07:49.188Z,1.90
2023-03-15T05:10:15.453Z,2.59
2023-03-15T05:12:41.778Z,2.07
2023-03-15T05:15:08.112Z,1.38
2023-03-15T05:17:34.408Z,1.20
2023-03-15T05:20:00.650Z,1.11
2023-03-15T05:22:26.953Z,1.30
2023-03-15T05:24:53.347Z,1.31
2023-03-15T05:27:19.684Z,1.42
2023-03-15T05:29:45.989Z,1.34
2023-03-15T05:32:12.276Z,1.27
2023-03-15T05:34:38.526Z,1.24
2023-03-15T05:37:04.784Z,1.31
2023-03-15T05:39:31.051Z,1.61
2023-03-15T05:41:57.307Z,1.38
2023-03-15T05:44:23.577Z,1.49
2023-03-15T05:46:49.855Z,1.80
2023-03-15T05:49:16.115Z,1.96
2023-03-15T05:51:42.365Z,2.85
2023-03-15T05:54:08.631Z,1.76
2023-03-15T05:56:34.898Z,1.48
2023-03-15T05:59:01.192Z,1.28
2023-03-15T06:01:27.466Z,1.44
2023-03-15T06:03:53.891Z,1.19
2023-03-15T06:06:20.179Z,1.17
2023-03-15T06:08:46.504Z,1.44
2023-03-15T06:11:12.781Z,1.89
2023-03-15T06:13:39.036Z,1.88
2023-03-15T06:16:05.295Z,1.47
2023-03-15T06:18:31.718Z,1.52
2023-03-15T06:20:57.979Z,1.41
2023-03-15T06:23:24.239Z,1.28
2023-03-15T06:25:50.507Z,1.17
2023-03-15T06:28:16.766Z,1.09
2023-03-15T06:30:43.067Z,1.32
2023-03-15T06:33:09.342Z,1.58
2023-03-15T06:35:35.669Z,1.91
2023-03-15T06:38:01.923Z,1.83
2023-03-15T06:40:28.176Z,1.83
2023-03-15T06:42:54.459Z,1.73
2023-03-15T06:45:20.737Z,1.54
2023-03-15T06:47:47.026Z,1.63
2023-03-15T06:50:13.371Z,1.82
2023-03-15T06:52:39.661Z,1.77
2023-03-15T06:55:05.959Z,1.96
2023-03-15T06:57:32.300Z,1.66
2023-03-15T06:59:58.562Z,1.77
2023-03-15T07:02:24.849Z,1.74
2023-03-15T07:04:51.113Z,2.01
2023-03-15T07:07:17.389Z,2.48
2023-03-15T07:09:43.640Z,2.68
2023-03-15T07:12:09.910Z,2.99
2023-03-15T07:14:36.188Z,2.58
2023-03-15T07:17:02.484Z,2.44
2023-03-15T07:19:28.744Z,2.88
2023-03-15T07:21:55.023Z,3.02
2023-03-15T07:24:21.276Z,3.58
2023-03-15T07:26:47.549Z,3.61
2023-03-15T07:29:13.832Z,3.47
2023-03-15T07:31:40.144Z,3.44
2023-03-15T07:34:06.402Z,3.73
2023-03-15T07:36:32.658Z,3.22
2023-03-15T07:38:58.952Z,3.23
2023-03-15T07:41:25.267Z,3.26
2023-03-15T07:43:51.530Z,3.51
2023-03-15T07:46:17.872Z,3.32
2023-03-15T07:48:44.173Z,2.93
2023-03-15T07:51:10.434Z,3.04
2023-03-15T07:53:36.746Z,2.82
2023-03-15T07:56:03.071Z,2.73
2023-03-15T07:58:29.372Z,2.81
2023-03-15T08:00:55.655Z,2.07
2023-03-15T08:03:21.979Z,1.87
2023-03-15T08:05:48.313Z,1.73
2023-03-15T08:08:14.625Z,1.42
2023-03-15T08:10:40.948Z,1.25
2023-03-15T08:13:07.230Z,1.30
2023-03-15T08:15:33.525Z,1.09
2023-03-15T08:17:59.810Z,0.92
2023-03-15T08:20:28.397Z,0.83
2023-03-15T08:22:55.742Z,0.74
2023-03-15T08:25:21.991Z,0.70
2023-03-15T08:27:48.267Z,0.70
2023-03-15T08:30:14.528Z,0.69
2023-03-15T08:32:40.853Z,0.53
2023-03-15T08:35:07.164Z,0.64
2023-03-15T08:37:33.438Z,0.47
2023-03-15T08:39:59.688Z,0.38
2023-03-15T08:42:25.936Z,0.39
2023-03-15T08:44:52.205Z,0.53
2023-03-15T08:47:18.449Z,0.38
2023-03-15T08:49:44.741Z,0.45
2023-03-15T08:52:11.000Z,0.58
2023-03-15T08:54:37.267Z,0.59
2023-03-15T08:57:03.531Z,0.63
2023-03-15T08:59:32.131Z,0.51
2023-03-15T09:01:58.742Z,0.44
2023-03-15T09:04:25.090Z,0.55
2023-03-15T09:06:51.372Z,0.54
2023-03-15T09:09:17.633Z,0.59
2023-03-15T09:11:43.907Z,0.63
2023-03-15T09:14:10.154Z,0.43
2023-03-15T09:16:36.486Z,0.46
2023-03-15T09:19:02.789Z,0.64
2023-03-15T09:21:29.053Z,0.63
2023-03-15T09:23:55.317Z,0.53
2023-03-15T09:26:21.588Z,0.76
2023-03-15T09:28:47.856Z,0.53
2023-03-15T09:31:14.240Z,0.58
2023-03-15T09:33:40.515Z,0.94
2023-03-15T09:36:06.834Z,0.78
2023-03-15T09:38:33.126Z,0.81
2023-03-15T09:40:59.396Z,0.66
2023-03-15T09:43:25.666Z,0.80
2023-03-15T09:45:52.056Z,0.63
2023-03-15T09:48:18.379Z,0.59
2023-03-15T09:50:44.629Z,0.57
2023-03-15T09:53:10.880Z,0.68
2023-03-15T09:55:37.142Z,0.60
2023-03-15T09:58:03.410Z,0.59
2023-03-15T10:00:29.682Z,0.64
2023-03-15T10:02:55.976Z,0.55
2023-03-15T10:05:22.243Z,0.40
2023-03-15T10:07:48.506Z,0.45
2023-03-15T10:10:14.778Z,0.50
2023-03-15T10:12:41.026Z,0.62
2023-03-15T10:15:07.290Z,0.55
2023-03-15T10:17:33.562Z,0.51
2023-03-15T10:19:59.834Z,0.54
2023-03-15T10:22:26.096Z,0.55
2023-03-15T10:24:52.387Z,0.60
2023-03-15T10:27:18.634Z,0.50
2023-03-15T10:29:44.870Z,0.56
2023-03-15T10:32:11.175Z,0.60
2023-03-15T10:34:37.553Z,0.65
2023-03-15T10:37:03.821Z,0.59
2023-03-15T10:39:30.100Z,0.61
2023-03-15T10:41:56.394Z,0.98
2023-03-15T10:44:22.669Z,0.61
2023-03-15T10:46:49.015Z,0.59
2023-03-15T10:49:15.523Z,0.68
2023-03-15T10:51:41.842Z,0.59
2023-03-15T10:54:08.123Z,0.58
2023-03-15T10:56:34.401Z,0.63
2023-03-15T10:59:11.843Z,0.68
2023-03-15T11:01:39.024Z,0.55
2023-03-15T11:04:05.388Z,0.53
2023-03-15T11:06:31.648Z,0.50
2023-03-15T11:08:57.930Z,0.56
2023-03-15T11:11:24.213Z,0.48
2023-03-15T11:13:50.490Z,0.48
2023-03-15T11:16:16.793Z,0.69
2023-03-15T11:18:43.087Z,0.60
2023-03-15T11:21:09.351Z,0.54
2023-03-15T11:23:35.609Z,0.48
2023-03-15T11:26:01.898Z,0.55
2023-03-15T11:28:28.173Z,0.57
2023-03-15T11:30:54.436Z,0.67
2023-03-15T11:33:20.723Z,0.55
2023-03-15T11:35:47.060Z,0.67
2023-03-15T11:38:15.198Z,0.61
2023-03-15T11:40:42.070Z,0.61
2023-03-15T11:43:08.336Z,0.61
2023-03-15T11:45:34.815Z,0.58
2023-03-15T11:48:01.135Z,0.56
2023-03-15T11:50:27.417Z,0.53
2023-03-15T11:52:53.700Z,0.58
2023-03-15T11:55:19.975Z,0.69
2023-03-15T11:57:46.242Z,1.59
2023-03-15T12:00:12.541Z,0.58
2023-03-15T12:02:38.920Z,0.54
2023-03-15T12:05:17.762Z,0.44
2023-03-15T12:07:44.520Z,0.54
2023-03-15T12:10:10.781Z,0.93
2023-03-15T12:12:37.068Z,0.89
2023-03-15T12:15:03.421Z,0.60
2023-03-15T12:17:29.737Z,0.51
2023-03-15T12:19:56.011Z,0.48
2023-03-15T12:22:22.268Z,0.37
2023-03-15T12:24:48.734Z,0.43
2023-03-15T12:27:14.995Z,0.38
2023-03-15T12:29:41.270Z,0.41
2023-03-15T12:32:07.540Z,0.39
2023-03-15T12:34:33.805Z,0.36
2023-03-15T12:37:00.117Z,0.53
2023-03-15T12:39:26.425Z,0.33
2023-03-15T12:41:52.702Z,0.47
2023-03-15T12:44:18.956Z,0.47
2023-03-15T12:46:45.225Z,0.30
2023-03-15T12:49:11.507Z,0.33
2023-03-15T12:51:37.766Z,0.41
2023-03-15T12:54:04.019Z,0.27
2023-03-15T12:56:30.296Z,0.45
2023-03-15T12:58:56.600Z,0.36
2023-03-15T13:01:22.998Z,0.46
2023-03-15T13:03:49.265Z,0.38
2023-03-15T13:06:15.521Z,0.33
2023-03-15T13:08:41.795Z,0.38
2023-03-15T13:11:08.054Z,0.51
2023-03-15T13:13:34.316Z,0.64
2023-03-15T13:16:00.609Z,0.41
2023-03-15T13:18:26.911Z,0.46
2023-03-15T13:20:53.198Z,0.42
2023-03-15T13:23:19.508Z,0.28
2023-03-15T13:25:45.848Z,0.58
2023-03-15T13:28:12.088Z,0.39
2023-03-15T13:30:38.357Z,0.42
2023-03-15T13:33:04.703Z,0.47
2023-03-15T13:35:31.016Z,0.59
2023-03-15T13:37:57.319Z,0.39
2023-03-15T13:40:23.599Z,0.32
2023-03-15T13:42:49.893Z,0.35
2023-03-15T13:45:16.147Z,0.39
2023-03-15T13:47:42.416Z,0.33
2023-03-15T13:50:08.684Z,0.27
2023-03-15T13:52:34.967Z,0.33
2023-03-15T13:55:01.345Z,0.36
2023-03-15T13:57:27.705Z,0.30
2023-03-15T13:59:53.974Z,0.30
2023-03-15T14:02:20.241Z,0.32
2023-03-15T14:04:46.513Z,0.44
2023-03-15T14:07:12.798Z,0.42
2023-03-15T14:09:39.078Z,0.30
2023-03-15T14:12:05.391Z,0.42
2023-03-15T14:14:31.679Z,0.25
2023-03-15T14:17:05.498Z,0.34
2023-03-15T14:19:32.406Z,0.42
2023-03-15T14:21:58.687Z,0.37
2023-03-15T14:24:24.971Z,0.45
2023-03-15T14:26:51.239Z,0.36
2023-03-15T14:29:17.783Z,0.37
2023-03-15T14:31:44.085Z,0.41
2023-03-15T14:34:10.406Z,0.43
2023-03-15T14:36:36.840Z,0.47
2023-03-15T14:39:03.084Z,0.40
2023-03-15T14:41:29.339Z,0.59
2023-03-15T14:43:55.612Z,0.38
2023-03-15T14:46:21.857Z,0.58
2023-03-15T14:48:48.152Z,0.41
2023-03-15T14:51:14.831Z,0.37
2023-03-15T14:53:41.152Z,0.33
2023-03-15T14:56:07.387Z,0.44
2023-03-15T14:58:33.636Z,0.48
2023-03-15T15:01:00.018Z,0.50
2023-03-15T15:03:26.317Z,0.54
2023-03-15T15:05:52.580Z,0.50
2023-03-15T15:08:18.825Z,0.45
2023-03-15T15:10:45.110Z,0.46
2023-03-15T15:13:11.413Z,0.49
2023-03-15T15:15:53.987Z,0.56
2023-03-15T15:18:21.231Z,0.50
2023-03-15T15:20:47.526Z,0.52
2023-03-15T15:23:13.780Z,0.49
2023-03-15T15:25:40.060Z,0.48
2023-03-15T15:28:06.300Z,0.41
2023-03-15T15:30:32.569Z,0.47
2023-03-15T15:32:58.897Z,0.38
2023-03-15T15:35:25.198Z,0.45
2023-03-15T15:37:51.437Z,0.40
2023-03-15T15:40:17.708Z,0.38
2023-03-15T15:42:43.984Z,0.33
2023-03-15T15:45:10.251Z,0.33
2023-03-15T15:47:36.554Z,0.33
2023-03-15T15:50:02.893Z,0.27
2023-03-15T15:52:29.227Z,0.28
2023-03-15T15:54:55.593Z,0.29
2023-03-15T15:57:21.952Z,0.30
2023-03-15T15:59:48.220Z,0.39
2023-03-15T16:02:14.656Z,0.87
2023-03-15T16:04:42.414Z,0.47
2023-03-15T16:07:08.811Z,0.32
2023-03-15T16:09:35.125Z,0.27
2023-03-15T16:12:01.469Z,0.29
2023-03-15T16:14:27.742Z,0.41
2023-03-15T16:16:54.018Z,0.36
2023-03-15T16:19:20.300Z,0.31
2023-03-15T16:21:46.596Z,0.24
2023-03-15T16:24:12.886Z,0.28
2023-03-15T16:26:39.202Z,0.32
2023-03-15T16:29:05.494Z,0.29
2023-03-15T16:31:31.868Z,0.28
2023-03-15T16:33:58.208Z,0.31
2023-03-15T16:36:24.487Z,0.28
2023-03-15T16:38:50.770Z,0.39
2023-03-15T16:41:17.063Z,0.59
2023-03-15T16:43:43.358Z,0.73
2023-03-15T16:46:09.641Z,0.70
2023-03-15T16:48:35.934Z,0.27
2023-03-15T16:51:02.220Z,0.52
2023-03-15T16:53:28.498Z,1.02
2023-03-15T16:55:54.770Z,1.23
2023-03-15T16:58:21.042Z,0.53
2023-03-15T17:00:47.339Z,0.54
2023-03-15T17:03:13.738Z,0.38
2023-03-15T17:05:40.055Z,0.35
2023-03-15T17:08:06.350Z,0.43
2023-03-15T17:10:32.640Z,0.55
2023-03-15T17:12:58.917Z,0.49
2023-03-15T17:15:25.275Z,0.46
2023-03-15T17:17:51.580Z,0.40
2023-03-15T17:20:17.875Z,0.51
2023-03-15T17:22:44.153Z,0.55
2023-03-15T17:25:10.452Z,0.40
2023-03-15T17:27:36.771Z,0.37
2023-03-15T17:30:03.031Z,0.38
2023-03-15T17:32:29.421Z,0.36
2023-03-15T17:34:55.792Z,0.38
2023-03-15T17:37:22.051Z,0.52
2023-03-15T17:39:48.340Z,0.80
2023-03-15T17:42:14.660Z,1.09
2023-03-15T17:44:40.946Z,1.04
2023-03-15T17:47:09.451Z,1.59
2023-03-15T17:49:35.864Z,1.43
2023-03-15T17:52:02.166Z,1.30
2023-03-15T17:54:28.478Z,1.36
2023-03-15T17:56:54.773Z,1.49
2023-03-15T17:59:21.047Z,1.18
2023-03-15T18:01:47.451Z,0.91
2023-03-15T18:04:13.785Z,1.12
2023-03-15T18:06:40.116Z,1.58
2023-03-15T18:09:06.394Z,1.78
2023-03-15T18:11:32.709Z,1.73
2023-03-15T18:13:59.024Z,1.48
2023-03-15T18:16:25.330Z,1.47
2023-03-15T18:18:51.604Z,1.69
2023-03-15T18:21:17.959Z,1.88
2023-03-15T18:23:44.368Z,1.59
2023-03-15T18:26:10.679Z,2.31
2023-03-15T18:28:36.986Z,2.29
2023-03-15T18:31:03.251Z,2.39
2023-03-15T18:33:29.945Z,2.12
2023-03-15T18:35:56.416Z,2.27
2023-03-15T18:38:23.123Z,2.32
2023-03-15T18:40:49.760Z,2.67
2023-03-15T18:43:16.237Z,2.69
2023-03-15T18:45:42.649Z,2.66
2023-03-15T18:48:09.035Z,2.52
2023-03-15T18:50:35.376Z,2.61
2023-03-15T18:53:01.748Z,2.59
2023-03-15T18:55:28.005Z,2.33
2023-03-15T18:57:54.286Z,2.16
2023-03-15T19:00:20.594Z,2.19
2023-03-15T19:02:46.934Z,1.97
2023-03-15T19:05:13.242Z,2.10
2023-03-15T19:07:39.546Z,1.81
2023-03-15T19:10:05.846Z,1.98
2023-03-15T19:12:32.111Z,2.15
2023-03-15T19:14:58.438Z,1.86
2023-03-15T19:17:24.689Z,1.92
2023-03-15T19:19:50.952Z,1.82
2023-03-15T19:22:17.222Z,1.95
2023-03-15T19:24:43.507Z,1.81
2023-03-15T19:27:09.800Z,1.49
2023-03-15T19:29:36.075Z,1.42
2023-03-15T19:32:02.366Z,1.55
2023-03-15T19:34:28.678Z,1.68
2023-03-15T19:36:54.945Z,1.88
2023-03-15T19:39:21.243Z,1.69
2023-03-15T19:41:47.557Z,1.80
2023-03-15T19:44:13.828Z,1.80
2023-03-15T19:46:40.193Z,1.77
2023-03-15T19:49:06.510Z,1.85
2023-03-15T19:51:32.776Z,1.98
2023-03-15T19:53:59.038Z,1.79
2023-03-15T19:56:25.316Z,1.96
2023-03-15T19:58:51.590Z,1.85
2023-03-15T20:01:17.865Z,1.90
2023-03-15T20:03:44.172Z,1.86
2023-03-15T20:06:10.505Z,1.94
2023-03-15T20:08:36.792Z,2.01
2023-03-15T20:11:03.053Z,1.73
2023-03-15T20:13:29.361Z,1.79
2023-03-15T20:15:55.659Z,1.96
2023-03-15T20:18:21.965Z,1.92
2023-03-15T20:20:48.247Z,2.04
2023-03-15T20:23:14.654Z,2.25
2023-03-15T20:25:41.006Z,1.97
2023-03-15T20:28:07.291Z,2.00
2023-03-15T20:30:33.559Z,2.39
2023-03-15T20:32:59.848Z,1.97
2023-03-15T20:35:26.162Z,2.18
2023-03-15T20:37:52.441Z,2.29
2023-03-15T20:40:18.775Z,2.55
2023-03-15T20:42:45.045Z,2.52
2023-03-15T20:45:11.370Z,2.38
2023-03-15T20:47:37.665Z,2.40
2023-03-15T20:50:03.973Z,2.21
2023-03-15T20:52:30.302Z,2.30
2023-03-15T20:54:56.618Z,1.97
2023-03-15T20:57:22.914Z,2.08
2023-03-15T20:59:50.232Z,2.19
2023-03-15T21:02:16.496Z,1.96
2023-03-15T21:04:42.790Z,2.08
2023-03-15T21:07:09.086Z,1.85
2023-03-15T21:09:35.353Z,1.90
2023-03-15T21:12:01.653Z,2.03
2023-03-15T21:14:27.960Z,2.17
2023-03-15T21:16:54.304Z,2.26
2023-03-15T21:19:20.660Z,2.24
2023-03-15T21:21:46.967Z,2.36
2023-03-15T21:24:13.226Z,2.21
2023-03-15T21:26:39.571Z,2.12
2023-03-15T21:29:05.876Z,2.18
2023-03-15T21:31:32.200Z,2.48
2023-03-15T21:33:58.482Z,2.50
2023-03-15T21:36:24.776Z,2.28
2023-03-15T21:38:51.032Z,2.43
2023-03-15T21:41:17.331Z,2.42
2023-03-15T21:43:43.615Z,2.47
2023-03-15T21:46:09.976Z,2.43
2023-03-15T21:48:36.352Z,2.39
2023-03-15T21:51:02.646Z,2.51
2023-03-15T21:53:28.985Z,2.45
2023-03-15T21:55:55.238Z,2.55
2023-03-15T21:58:21.691Z,2.51
2023-03-15T22:00:48.697Z,2.49
2023-03-15T22:03:17.015Z,2.64
2023-03-15T22:05:46.966Z,2.69
2023-03-15T22:08:13.385Z,2.56
2023-03-15T22:10:39.917Z,2.62
2023-03-15T22:13:06.273Z,2.79
2023-03-15T22:15:32.567Z,2.49
2023-03-15T22:18:02.328Z,2.50
2023-03-15T22:20:28.603Z,2.57
2023-03-15T22:22:55.146Z,2.40
2023-03-15T22:25:21.433Z,2.32
2023-03-15T22:27:47.699Z,2.37
2023-03-15T22:30:13.965Z,2.35
2023-03-15T22:32:40.287Z,2.51
2023-03-15T22:35:06.574Z,2.45
2023-03-15T22:37:32.845Z,2.42
2023-03-15T22:39:59.144Z,2.46
2023-03-15T22:42:25.414Z,2.25
2023-03-15T22:44:51.694Z,2.48
2023-03-15T22:47:18.168Z,2.38
2023-03-15T22:49:44.431Z,2.38
2023-03-15T22:52:10.718Z,2.64
2023-03-15T22:54:36.971Z,2.52
2023-03-15T22:57:03.221Z,2.62
2023-03-15T22:59:29.478Z,2.43
2023-03-15T23:01:55.897Z,2.28
2023-03-15T23:04:22.320Z,2.38
2023-03-15T23:06:48.624Z,2.30
2023-03-15T23:09:14.872Z,2.35
2023-03-15T23:11:41.125Z,2.49
2023-03-15T23:14:07.494Z,2.28
2023-03-15T23:16:33.794Z,2.45
2023-03-15T23:19:00.083Z,2.44
2023-03-15T23:21:26.373Z,2.57
2023-03-15T23:23:52.661Z,2.46
2023-03-15T23:26:18.919Z,2.40
2023-03-15T23:28:45.240Z,2.28
2023-03-15T23:31:11.580Z,2.40
2023-03-15T23:33:37.886Z,2.48
2023-03-15T23:36:04.325Z,2.30
2023-03-15T23:38:30.588Z,2.56
2023-03-15T23:40:56.838Z,2.35
2023-03-15T23:43:23.120Z,2.29
2023-03-15T23:45:49.395Z,2.20
2023-03-15T23:48:15.644Z,2.08
2023-03-15T23:50:41.906Z,2.40
2023-03-15T23:53:08.159Z,2.14
2023-03-15T23:55:34.405Z,2.13
2023-03-15T23:58:00.676Z,2.26
